NFNA

Nausori International Airport

Nausori, Fiji
TAF NFNA 212309Z 2200/2224 17008KT 9999 BKN020 PROB40 TEMPO 2202/2206 5000 SHRA BKN015
Issued Valid From Valid To
Jan-21 @ 23:09 UTC
(58 minutes ago)
Jan-22 @ 00:00 UTC
(7 minutes ago)
Jan-23 @ 00:00 UTC
(in 24 hours)
Jan-22 @ 00:00 to Jan-23 @ 00:00
TAF NFNA 212309Z 2200/2224 17008KT 9999 BKN020
Wind Visibility Clouds
170° at 8 knots 10,000+ meters
  • Broken at 2,000' AGL
Temporary  (Probability 40%) Jan-22 @ 02:00 to Jan-22 @ 06:00
PROB40 TEMPO 2202/2206 5000 SHRA BKN015
Visibility Clouds Conditions
5,005 meters
  • Broken at 1,500' AGL
  • Rain
TAF NFNA 212309Z 2200/2224 17008KT 9999 BKN020 PROB40 TEMPO 2202/2206 5000 SHRA BKN015
Issued Jan-21 @ 23:09 UTC
(58 minutes ago)
Valid From Jan-22 @ 00:00 UTC
(7 minutes ago)
Valid To Jan-23 @ 00:00 UTC
(in 24 hours)
Jan-22 @ 00:00 - Jan-23 @ 00:00
Wind Visibility
170° at 8 knots 10,000+ meters
Clouds
  • Broken at 2,000' AGL
Probability 40% Temporary Jan-22 @ 02:00 - Jan-22 @ 06:00
Clouds
  • Broken at 1,500' AGL
Conditions
  • Rain